sensor_id;sensor_type;location;lat;lon;timestamp;temperature;humidity
13928;DHT22;7036;50.834;4.718;2023-09-07T00:00:24;25.80;64.30
13928;DHT22;7036;50.834;4.718;2023-09-07T00:02:51;25.80;64.30
13928;DHT22;7036;50.834;4.718;2023-09-07T00:05:18;25.80;64.30
13928;DHT22;7036;50.834;4.718;2023-09-07T00:07:45;25.80;64.30
13928;DHT22;7036;50.834;4.718;2023-09-07T00:10:12;25.80;64.30
13928;DHT22;7036;50.834;4.718;2023-09-07T00:12:39;25.80;64.20
13928;DHT22;7036;50.834;4.718;2023-09-07T00:15:06;25.80;64.30
13928;DHT22;7036;50.834;4.718;2023-09-07T00:17:34;25.80;63.80
13928;DHT22;7036;50.834;4.718;2023-09-07T00:20:01;25.70;64.20
13928;DHT22;7036;50.834;4.718;2023-09-07T00:22:28;25.80;64.30
13928;DHT22;7036;50.834;4.718;2023-09-07T00:24:55;25.80;64.30
13928;DHT22;7036;50.834;4.718;2023-09-07T00:27:22;25.70;64.20
13928;DHT22;7036;50.834;4.718;2023-09-07T00:29:49;25.70;64.20
13928;DHT22;7036;50.834;4.718;2023-09-07T00:32:16;25.70;64.20
13928;DHT22;7036;50.834;4.718;2023-09-07T00:34:44;25.70;64.30
13928;DHT22;7036;50.834;4.718;2023-09-07T00:37:10;25.70;64.30
13928;DHT22;7036;50.834;4.718;2023-09-07T00:39:38;25.70;64.30
13928;DHT22;7036;50.834;4.718;2023-09-07T00:42:06;25.70;64.30
13928;DHT22;7036;50.834;4.718;2023-09-07T00:44:32;25.70;64.30
13928;DHT22;7036;50.834;4.718;2023-09-07T00:47:05;25.70;64.30
13928;DHT22;7036;50.834;4.718;2023-09-07T00:49:32;25.70;64.30
13928;DHT22;7036;50.834;4.718;2023-09-07T00:51:59;25.70;64.30
13928;DHT22;7036;50.834;4.718;2023-09-07T00:54:26;25.70;64.20
13928;DHT22;7036;50.834;4.718;2023-09-07T00:56:53;25.70;64.20
13928;DHT22;7036;50.834;4.718;2023-09-07T00:59:20;25.70;64.30
13928;DHT22;7036;50.834;4.718;2023-09-07T01:01:47;25.70;64.40
13928;DHT22;7036;50.834;4.718;2023-09-07T01:04:14;25.70;64.40
13928;DHT22;7036;50.834;4.718;2023-09-07T01:06:43;25.60;64.30
13928;DHT22;7036;50.834;4.718;2023-09-07T01:09:11;25.70;64.40
13928;DHT22;7036;50.834;4.718;2023-09-07T01:11:37;25.60;64.30
13928;DHT22;7036;50.834;4.718;2023-09-07T01:14:04;25.70;64.30
13928;DHT22;7036;50.834;4.718;2023-09-07T01:16:31;25.60;64.30
13928;DHT22;7036;50.834;4.718;2023-09-07T01:18:58;25.70;64.30
13928;DHT22;7036;50.834;4.718;2023-09-07T01:21:25;25.70;64.30
13928;DHT22;7036;50.834;4.718;2023-09-07T01:23:52;25.70;64.30
13928;DHT22;7036;50.834;4.718;2023-09-07T01:26:18;25.70;65.00
13928;DHT22;7036;50.834;4.718;2023-09-07T01:28:45;25.60;64.30
13928;DHT22;7036;50.834;4.718;2023-09-07T01:31:12;25.60;64.30
13928;DHT22;7036;50.834;4.718;2023-09-07T01:33:40;25.60;64.40
13928;DHT22;7036;50.834;4.718;2023-09-07T01:36:07;25.60;64.30
13928;DHT22;7036;50.834;4.718;2023-09-07T01:38:33;25.60;64.30
13928;DHT22;7036;50.834;4.718;2023-09-07T01:41:00;25.60;64.40
13928;DHT22;7036;50.834;4.718;2023-09-07T01:43:27;25.60;64.40
13928;DHT22;7036;50.834;4.718;2023-09-07T01:45:54;25.60;64.40
13928;DHT22;7036;50.834;4.718;2023-09-07T01:48:21;25.60;64.30
13928;DHT22;7036;50.834;4.718;2023-09-07T01:50:52;25.60;64.30
13928;DHT22;7036;50.834;4.718;2023-09-07T01:53:15;25.60;64.40
13928;DHT22;7036;50.834;4.718;2023-09-07T01:55:42;25.60;64.30
13928;DHT22;7036;50.834;4.718;2023-09-07T01:58:09;25.60;64.20
13928;DHT22;7036;50.834;4.718;2023-09-07T02:00:36;25.60;64.20
13928;DHT22;7036;50.834;4.718;2023-09-07T02:03:03;25.60;64.20
13928;DHT22;7036;50.834;4.718;2023-09-07T02:05:30;25.60;64.30
13928;DHT22;7036;50.834;4.718;2023-09-07T02:07:57;25.60;64.30
13928;DHT22;7036;50.834;4.718;2023-09-07T02:10:24;25.60;64.30
13928;DHT22;7036;50.834;4.718;2023-09-07T02:12:51;25.60;64.30
13928;DHT22;7036;50.834;4.718;2023-09-07T02:15:17;25.60;64.20
13928;DHT22;7036;50.834;4.718;2023-09-07T02:17:44;25.60;64.30
13928;DHT22;7036;50.834;4.718;2023-09-07T02:20:11;25.50;64.30
13928;DHT22;7036;50.834;4.718;2023-09-07T02:22:38;25.60;64.30
13928;DHT22;7036;50.834;4.718;2023-09-07T02:25:05;25.60;64.20
13928;DHT22;7036;50.834;4.718;2023-09-07T02:27:32;25.60;64.30
13928;DHT22;7036;50.834;4.718;2023-09-07T02:30:00;25.50;64.20
13928;DHT22;7036;50.834;4.718;2023-09-07T02:32:27;25.50;64.20
13928;DHT22;7036;50.834;4.718;2023-09-07T02:34:54;25.50;64.30
13928;DHT22;7036;50.834;4.718;2023-09-07T02:37:21;25.50;64.30
13928;DHT22;7036;50.834;4.718;2023-09-07T02:39:48;25.50;64.30
13928;DHT22;7036;50.834;4.718;2023-09-07T02:42:14;25.50;64.20
13928;DHT22;7036;50.834;4.718;2023-09-07T02:44:41;25.50;64.20
13928;DHT22;7036;50.834;4.718;2023-09-07T02:47:08;25.50;64.20
13928;DHT22;7036;50.834;4.718;2023-09-07T02:49:35;25.50;64.30
13928;DHT22;7036;50.834;4.718;2023-09-07T02:52:02;25.50;64.30
13928;DHT22;7036;50.834;4.718;2023-09-07T02:54:29;25.50;64.20
13928;DHT22;7036;50.834;4.718;2023-09-07T02:56:56;25.50;64.20
13928;DHT22;7036;50.834;4.718;2023-09-07T02:59:23;25.50;64.10
13928;DHT22;7036;50.834;4.718;2023-09-07T03:01:50;25.50;64.20
13928;DHT22;7036;50.834;4.718;2023-09-07T03:04:17;25.40;64.20
13928;DHT22;7036;50.834;4.718;2023-09-07T03:06:44;25.50;64.20
13928;DHT22;7036;50.834;4.718;2023-09-07T03:09:11;25.50;64.30
13928;DHT22;7036;50.834;4.718;2023-09-07T03:11:38;25.50;64.20
13928;DHT22;7036;50.834;4.718;2023-09-07T03:14:05;25.40;64.20
13928;DHT22;7036;50.834;4.718;2023-09-07T03:16:31;25.40;64.20
13928;DHT22;7036;50.834;4.718;2023-09-07T03:18:58;25.50;64.30
13928;DHT22;7036;50.834;4.718;2023-09-07T03:21:25;25.40;64.30
13928;DHT22;7036;50.834;4.718;2023-09-07T03:23:52;25.50;64.30
13928;DHT22;7036;50.834;4.718;2023-09-07T03:26:19;25.40;64.10
13928;DHT22;7036;50.834;4.718;2023-09-07T03:28:46;25.50;64.20
13928;DHT22;7036;50.834;4.718;2023-09-07T03:31:13;25.50;64.30
13928;DHT22;7036;50.834;4.718;2023-09-07T03:33:40;25.50;64.40
13928;DHT22;7036;50.834;4.718;2023-09-07T03:36:07;25.40;64.40
13928;DHT22;7036;50.834;4.718;2023-09-07T03:38:34;25.40;64.40
13928;DHT22;7036;50.834;4.718;2023-09-07T03:41:01;25.40;64.40
13928;DHT22;7036;50.834;4.718;2023-09-07T03:43:28;25.40;64.10
13928;DHT22;7036;50.834;4.718;2023-09-07T03:45:56;25.50;64.60
13928;DHT22;7036;50.834;4.718;2023-09-07T03:48:22;25.50;63.60
13928;DHT22;7036;50.834;4.718;2023-09-07T03:50:50;25.50;63.60
13928;DHT22;7036;50.834;4.718;2023-09-07T03:53:16;25.50;63.70
13928;DHT22;7036;50.834;4.718;2023-09-07T03:55:43;25.40;63.60
13928;DHT22;7036;50.834;4.718;2023-09-07T03:58:10;25.40;62.70
13928;DHT22;7036;50.834;4.718;2023-09-07T04:00:40;25.40;62.60
13928;DHT22;7036;50.834;4.718;2023-09-07T04:03:07;25.40;62.30
13928;DHT22;7036;50.834;4.718;2023-09-07T04:05:33;25.40;62.40
13928;DHT22;7036;50.834;4.718;2023-09-07T04:08:00;25.40;62.50
13928;DHT22;7036;50.834;4.718;2023-09-07T04:10:27;25.40;62.70
13928;DHT22;7036;50.834;4.718;2023-09-07T04:12:54;25.40;62.70
13928;DHT22;7036;50.834;4.718;2023-09-07T04:15:21;25.30;62.80
13928;DHT22;7036;50.834;4.718;2023-09-07T04:17:49;25.30;62.90
13928;DHT22;7036;50.834;4.718;2023-09-07T04:20:15;25.30;63.20
13928;DHT22;7036;50.834;4.718;2023-09-07T04:22:42;25.30;63.10
13928;DHT22;7036;50.834;4.718;2023-09-07T04:25:08;25.30;63.10
13928;DHT22;7036;50.834;4.718;2023-09-07T04:27:35;25.40;63.00
13928;DHT22;7036;50.834;4.718;2023-09-07T04:30:02;25.50;62.80
13928;DHT22;7036;50.834;4.718;2023-09-07T04:32:30;25.40;63.10
13928;DHT22;7036;50.834;4.718;2023-09-07T04:34:58;25.40;63.30
13928;DHT22;7036;50.834;4.718;2023-09-07T04:37:24;25.30;63.10
13928;DHT22;7036;50.834;4.718;2023-09-07T04:39:52;25.40;63.20
13928;DHT22;7036;50.834;4.718;2023-09-07T04:42:19;25.30;63.20
13928;DHT22;7036;50.834;4.718;2023-09-07T04:44:46;25.30;63.20
13928;DHT22;7036;50.834;4.718;2023-09-07T04:47:12;25.30;63.20
13928;DHT22;7036;50.834;4.718;2023-09-07T04:49:39;25.30;63.30
13928;DHT22;7036;50.834;4.718;2023-09-07T04:52:06;25.30;63.30
13928;DHT22;7036;50.834;4.718;2023-09-07T04:54:33;25.30;63.30
13928;DHT22;7036;50.834;4.718;2023-09-07T04:57:00;25.30;63.30
13928;DHT22;7036;50.834;4.718;2023-09-07T04:59:28;25.30;63.30
13928;DHT22;7036;50.834;4.718;2023-09-07T05:01:55;25.40;63.20
13928;DHT22;7036;50.834;4.718;2023-09-07T05:04:22;25.40;63.10
13928;DHT22;7036;50.834;4.718;2023-09-07T05:06:48;25.40;62.90
13928;DHT22;7036;50.834;4.718;2023-09-07T05:09:15;25.40;63.20
13928;DHT22;7036;50.834;4.718;2023-09-07T05:11:42;25.30;63.30
13928;DHT22;7036;50.834;4.718;2023-09-07T05:14:09;25.30;63.50
13928;DHT22;7036;50.834;4.718;2023-09-07T05:16:43;25.20;63.60
13928;DHT22;7036;50.834;4.718;2023-09-07T05:19:12;25.20;63.60
13928;DHT22;7036;50.834;4.718;2023-09-07T05:21:40;25.20;63.50
13928;DHT22;7036;50.834;4.718;2023-09-07T05:24:07;25.20;63.50
13928;DHT22;7036;50.834;4.718;2023-09-07T05:26:33;25.30;63.50
13928;DHT22;7036;50.834;4.718;2023-09-07T05:29:00;25.20;63.50
13928;DHT22;7036;50.834;4.718;2023-09-07T05:31:27;25.20;63.50
13928;DHT22;7036;50.834;4.718;2023-09-07T05:33:54;25.20;63.60
13928;DHT22;7036;50.834;4.718;2023-09-07T05:36:21;25.20;63.70
13928;DHT22;7036;50.834;4.718;2023-09-07T05:38:48;25.20;63.70
13928;DHT22;7036;50.834;4.718;2023-09-07T05:41:15;25.20;63.70
13928;DHT22;7036;50.834;4.718;2023-09-07T05:43:42;25.20;63.70
13928;DHT22;7036;50.834;4.718;2023-09-07T05:46:09;25.20;63.70
13928;DHT22;7036;50.834;4.718;2023-09-07T05:48:36;25.20;63.70
13928;DHT22;7036;50.834;4.718;2023-09-07T05:51:03;25.20;63.70
13928;DHT22;7036;50.834;4.718;2023-09-07T05:53:30;25.20;63.70
13928;DHT22;7036;50.834;4.718;2023-09-07T05:55:57;25.20;63.80
13928;DHT22;7036;50.834;4.718;2023-09-07T05:58:24;25.20;63.70
13928;DHT22;7036;50.834;4.718;2023-09-07T06:00:51;25.20;63.60
13928;DHT22;7036;50.834;4.718;2023-09-07T06:03:18;25.20;63.70
13928;DHT22;7036;50.834;4.718;2023-09-07T06:05:44;25.20;63.80
13928;DHT22;7036;50.834;4.718;2023-09-07T06:08:11;25.20;63.70
13928;DHT22;7036;50.834;4.718;2023-09-07T06:10:38;25.20;63.70
13928;DHT22;7036;50.834;4.718;2023-09-07T06:13:05;25.20;63.80
13928;DHT22;7036;50.834;4.718;2023-09-07T06:15:32;25.20;63.80
13928;DHT22;7036;50.834;4.718;2023-09-07T06:17:59;25.20;63.80
13928;DHT22;7036;50.834;4.718;2023-09-07T06:20:26;25.20;63.80
13928;DHT22;7036;50.834;4.718;2023-09-07T06:22:53;25.20;63.80
13928;DHT22;7036;50.834;4.718;2023-09-07T06:25:20;25.20;63.90
13928;DHT22;7036;50.834;4.718;2023-09-07T06:27:47;25.20;63.80
13928;DHT22;7036;50.834;4.718;2023-09-07T06:30:14;25.20;63.80
13928;DHT22;7036;50.834;4.718;2023-09-07T06:32:44;25.20;63.70
13928;DHT22;7036;50.834;4.718;2023-09-07T06:35:11;25.20;63.70
13928;DHT22;7036;50.834;4.718;2023-09-07T06:37:38;25.30;63.60
13928;DHT22;7036;50.834;4.718;2023-09-07T06:40:05;25.20;63.50
13928;DHT22;7036;50.834;4.718;2023-09-07T06:42:33;25.30;63.30
13928;DHT22;7036;50.834;4.718;2023-09-07T06:44:59;25.20;63.00
13928;DHT22;7036;50.834;4.718;2023-09-07T06:47:26;25.20;62.90
13928;DHT22;7036;50.834;4.718;2023-09-07T06:49:53;25.30;62.80
13928;DHT22;7036;50.834;4.718;2023-09-07T06:52:20;25.30;62.70
13928;DHT22;7036;50.834;4.718;2023-09-07T06:54:47;25.30;62.60
13928;DHT22;7036;50.834;4.718;2023-09-07T06:57:14;25.40;62.80
13928;DHT22;7036;50.834;4.718;2023-09-07T06:59:41;25.40;62.60
13928;DHT22;7036;50.834;4.718;2023-09-07T07:02:08;25.40;61.90
13928;DHT22;7036;50.834;4.718;2023-09-07T07:04:35;25.40;61.80
13928;DHT22;7036;50.834;4.718;2023-09-07T07:07:02;25.40;61.50
13928;DHT22;7036;50.834;4.718;2023-09-07T07:09:28;25.40;62.00
13928;DHT22;7036;50.834;4.718;2023-09-07T07:11:55;25.40;61.90
13928;DHT22;7036;50.834;4.718;2023-09-07T07:14:22;25.40;62.00
13928;DHT22;7036;50.834;4.718;2023-09-07T07:16:49;25.30;61.90
13928;DHT22;7036;50.834;4.718;2023-09-07T07:19:16;25.40;61.70
13928;DHT22;7036;50.834;4.718;2023-09-07T07:21:43;25.40;61.50
13928;DHT22;7036;50.834;4.718;2023-09-07T07:24:10;25.40;61.60
13928;DHT22;7036;50.834;4.718;2023-09-07T07:26:37;25.40;61.40
13928;DHT22;7036;50.834;4.718;2023-09-07T07:29:04;25.40;61.40
13928;DHT22;7036;50.834;4.718;2023-09-07T07:31:31;25.40;61.20
13928;DHT22;7036;50.834;4.718;2023-09-07T07:34:00;25.40;61.40
13928;DHT22;7036;50.834;4.718;2023-09-07T07:36:27;25.30;61.40
13928;DHT22;7036;50.834;4.718;2023-09-07T07:38:53;25.30;61.50
13928;DHT22;7036;50.834;4.718;2023-09-07T07:41:20;25.40;61.70
13928;DHT22;7036;50.834;4.718;2023-09-07T07:43:47;25.40;61.60
13928;DHT22;7036;50.834;4.718;2023-09-07T07:46:15;25.40;61.80
13928;DHT22;7036;50.834;4.718;2023-09-07T07:48:41;25.40;62.00
13928;DHT22;7036;50.834;4.718;2023-09-07T07:51:08;25.50;62.00
13928;DHT22;7036;50.834;4.718;2023-09-07T07:53:35;25.50;62.00
13928;DHT22;7036;50.834;4.718;2023-09-07T07:56:02;25.50;61.90
13928;DHT22;7036;50.834;4.718;2023-09-07T07:58:29;25.50;61.90
13928;DHT22;7036;50.834;4.718;2023-09-07T08:00:56;25.50;62.00
13928;DHT22;7036;50.834;4.718;2023-09-07T08:03:24;25.50;62.10
13928;DHT22;7036;50.834;4.718;2023-09-07T08:05:50;25.60;62.30
13928;DHT22;7036;50.834;4.718;2023-09-07T08:08:17;25.60;62.30
13928;DHT22;7036;50.834;4.718;2023-09-07T08:10:44;25.60;62.30
13928;DHT22;7036;50.834;4.718;2023-09-07T08:13:11;25.60;62.30
13928;DHT22;7036;50.834;4.718;2023-09-07T08:15:38;25.60;62.30
13928;DHT22;7036;50.834;4.718;2023-09-07T08:18:05;25.60;62.40
13928;DHT22;7036;50.834;4.718;2023-09-07T08:20:32;25.60;62.50
13928;DHT22;7036;50.834;4.718;2023-09-07T08:22:59;25.60;62.60
13928;DHT22;7036;50.834;4.718;2023-09-07T08:25:26;25.60;62.60
13928;DHT22;7036;50.834;4.718;2023-09-07T08:27:52;25.60;62.50
13928;DHT22;7036;50.834;4.718;2023-09-07T08:30:19;25.60;62.50
13928;DHT22;7036;50.834;4.718;2023-09-07T08:32:47;25.70;62.60
13928;DHT22;7036;50.834;4.718;2023-09-07T08:35:14;25.60;62.50
13928;DHT22;7036;50.834;4.718;2023-09-07T08:37:42;25.70;62.60
13928;DHT22;7036;50.834;4.718;2023-09-07T08:40:08;25.60;62.60
13928;DHT22;7036;50.834;4.718;2023-09-07T08:42:35;25.60;62.70
13928;DHT22;7036;50.834;4.718;2023-09-07T08:45:02;25.60;62.70
13928;DHT22;7036;50.834;4.718;2023-09-07T08:47:29;25.60;62.90
13928;DHT22;7036;50.834;4.718;2023-09-07T08:49:56;25.60;63.00
13928;DHT22;7036;50.834;4.718;2023-09-07T08:52:23;25.70;63.10
13928;DHT22;7036;50.834;4.718;2023-09-07T08:54:50;25.60;63.00
13928;DHT22;7036;50.834;4.718;2023-09-07T08:57:17;25.60;63.00
13928;DHT22;7036;50.834;4.718;2023-09-07T08:59:44;25.70;63.10
13928;DHT22;7036;50.834;4.718;2023-09-07T09:02:11;25.70;63.10
13928;DHT22;7036;50.834;4.718;2023-09-07T09:04:38;25.70;63.00
13928;DHT22;7036;50.834;4.718;2023-09-07T09:07:04;25.70;63.10
13928;DHT22;7036;50.834;4.718;2023-09-07T09:09:31;25.70;63.00
13928;DHT22;7036;50.834;4.718;2023-09-07T09:12:08;25.70;63.00
13928;DHT22;7036;50.834;4.718;2023-09-07T09:14:34;25.70;62.90
13928;DHT22;7036;50.834;4.718;2023-09-07T09:17:01;25.70;62.80
13928;DHT22;7036;50.834;4.718;2023-09-07T09:19:35;25.70;62.90
13928;DHT22;7036;50.834;4.718;2023-09-07T09:22:01;25.70;62.90
13928;DHT22;7036;50.834;4.718;2023-09-07T09:24:31;25.70;62.90
13928;DHT22;7036;50.834;4.718;2023-09-07T09:26:55;25.70;62.90
13928;DHT22;7036;50.834;4.718;2023-09-07T09:29:22;25.70;63.00
13928;DHT22;7036;50.834;4.718;2023-09-07T09:31:50;25.70;62.90
13928;DHT22;7036;50.834;4.718;2023-09-07T09:34:17;25.70;62.90
13928;DHT22;7036;50.834;4.718;2023-09-07T09:36:43;25.70;62.90
13928;DHT22;7036;50.834;4.718;2023-09-07T09:39:20;25.70;63.70
13928;DHT22;7036;50.834;4.718;2023-09-07T09:41:37;25.70;63.00
13928;DHT22;7036;50.834;4.718;2023-09-07T09:44:04;25.70;62.90
13928;DHT22;7036;50.834;4.718;2023-09-07T09:46:32;25.70;62.90
13928;DHT22;7036;50.834;4.718;2023-09-07T09:48:58;25.70;63.00
13928;DHT22;7036;50.834;4.718;2023-09-07T09:51:27;25.80;62.90
13928;DHT22;7036;50.834;4.718;2023-09-07T09:53:53;25.70;62.90
13928;DHT22;7036;50.834;4.718;2023-09-07T09:56:20;25.70;62.90
13928;DHT22;7036;50.834;4.718;2023-09-07T09:58:47;25.70;62.90
13928;DHT22;7036;50.834;4.718;2023-09-07T10:01:14;25.70;63.00
13928;DHT22;7036;50.834;4.718;2023-09-07T10:03:42;25.70;63.00
13928;DHT22;7036;50.834;4.718;2023-09-07T10:06:08;25.80;63.00
13928;DHT22;7036;50.834;4.718;2023-09-07T10:08:35;25.80;63.10
13928;DHT22;7036;50.834;4.718;2023-09-07T10:11:07;25.70;63.70
13928;DHT22;7036;50.834;4.718;2023-09-07T10:13:32;25.80;62.90
13928;DHT22;7036;50.834;4.718;2023-09-07T10:16:04;25.70;62.70
13928;DHT22;7036;50.834;4.718;2023-09-07T10:18:34;25.70;62.60
13928;DHT22;7036;50.834;4.718;2023-09-07T10:21:00;25.80;62.70
13928;DHT22;7036;50.834;4.718;2023-09-07T10:23:40;25.80;62.50
13928;DHT22;7036;50.834;4.718;2023-09-07T10:26:13;25.80;62.40
13928;DHT22;7036;50.834;4.718;2023-09-07T10:28:37;25.80;62.30
13928;DHT22;7036;50.834;4.718;2023-09-07T10:31:13;25.80;62.20
13928;DHT22;7036;50.834;4.718;2023-09-07T10:33:41;25.80;62.10
13928;DHT22;7036;50.834;4.718;2023-09-07T10:36:07;25.80;62.00
13928;DHT22;7036;50.834;4.718;2023-09-07T10:38:35;25.80;62.00
13928;DHT22;7036;50.834;4.718;2023-09-07T10:41:02;25.80;62.00
13928;DHT22;7036;50.834;4.718;2023-09-07T10:43:29;25.80;62.00
13928;DHT22;7036;50.834;4.718;2023-09-07T10:45:55;25.80;61.90
13928;DHT22;7036;50.834;4.718;2023-09-07T10:48:22;25.80;62.50
13928;DHT22;7036;50.834;4.718;2023-09-07T10:50:49;25.80;61.80
13928;DHT22;7036;50.834;4.718;2023-09-07T10:53:23;25.90;61.80
13928;DHT22;7036;50.834;4.718;2023-09-07T10:55:43;25.80;61.70
13928;DHT22;7036;50.834;4.718;2023-09-07T10:58:10;25.90;61.80
13928;DHT22;7036;50.834;4.718;2023-09-07T11:00:37;25.80;61.70
13928;DHT22;7036;50.834;4.718;2023-09-07T11:03:07;25.80;61.70
13928;DHT22;7036;50.834;4.718;2023-09-07T11:05:34;25.90;61.70
13928;DHT22;7036;50.834;4.718;2023-09-07T11:08:02;25.90;61.70
13928;DHT22;7036;50.834;4.718;2023-09-07T11:10:31;25.90;61.70
13928;DHT22;7036;50.834;4.718;2023-09-07T11:12:55;25.90;61.70
13928;DHT22;7036;50.834;4.718;2023-09-07T11:15:22;25.90;61.60
13928;DHT22;7036;50.834;4.718;2023-09-07T11:17:49;25.90;61.60
13928;DHT22;7036;50.834;4.718;2023-09-07T11:20:16;26.00;61.70
13928;DHT22;7036;50.834;4.718;2023-09-07T11:22:43;26.00;61.50
13928;DHT22;7036;50.834;4.718;2023-09-07T11:25:10;26.00;61.50
13928;DHT22;7036;50.834;4.718;2023-09-07T11:27:39;26.00;61.40
13928;DHT22;7036;50.834;4.718;2023-09-07T11:30:04;26.00;61.30
13928;DHT22;7036;50.834;4.718;2023-09-07T11:32:36;26.00;61.60
13928;DHT22;7036;50.834;4.718;2023-09-07T11:35:02;26.00;61.20
13928;DHT22;7036;50.834;4.718;2023-09-07T11:37:30;26.00;61.40
13928;DHT22;7036;50.834;4.718;2023-09-07T11:39:56;26.00;61.20
13928;DHT22;7036;50.834;4.718;2023-09-07T11:42:23;26.00;61.30
13928;DHT22;7036;50.834;4.718;2023-09-07T11:44:50;26.10;61.30
13928;DHT22;7036;50.834;4.718;2023-09-07T11:47:17;26.10;61.30
13928;DHT22;7036;50.834;4.718;2023-09-07T11:49:44;26.00;61.20
13928;DHT22;7036;50.834;4.718;2023-09-07T11:52:12;26.10;61.30
13928;DHT22;7036;50.834;4.718;2023-09-07T11:54:40;26.00;61.90
13928;DHT22;7036;50.834;4.718;2023-09-07T11:57:07;26.10;61.30
13928;DHT22;7036;50.834;4.718;2023-09-07T11:59:34;26.10;61.30
13928;DHT22;7036;50.834;4.718;2023-09-07T12:02:01;26.10;61.20
13928;DHT22;7036;50.834;4.718;2023-09-07T12:04:28;26.10;61.20
13928;DHT22;7036;50.834;4.718;2023-09-07T12:06:54;26.00;61.10
13928;DHT22;7036;50.834;4.718;2023-09-07T12:09:21;26.10;61.20
13928;DHT22;7036;50.834;4.718;2023-09-07T12:11:48;26.10;61.20
13928;DHT22;7036;50.834;4.718;2023-09-07T12:14:15;26.10;61.30
13928;DHT22;7036;50.834;4.718;2023-09-07T12:16:42;26.10;61.20
13928;DHT22;7036;50.834;4.718;2023-09-07T12:19:09;26.10;61.20
13928;DHT22;7036;50.834;4.718;2023-09-07T12:21:36;26.10;61.20
13928;DHT22;7036;50.834;4.718;2023-09-07T12:24:03;26.10;61.20
13928;DHT22;7036;50.834;4.718;2023-09-07T12:26:30;26.10;61.20
13928;DHT22;7036;50.834;4.718;2023-09-07T12:28:57;26.10;61.20
13928;DHT22;7036;50.834;4.718;2023-09-07T12:31:24;26.10;61.10
13928;DHT22;7036;50.834;4.718;2023-09-07T12:33:51;26.20;61.20
13928;DHT22;7036;50.834;4.718;2023-09-07T12:36:18;26.20;61.20
13928;DHT22;7036;50.834;4.718;2023-09-07T12:38:45;26.20;61.20
13928;DHT22;7036;50.834;4.718;2023-09-07T12:41:11;26.20;61.30
13928;DHT22;7036;50.834;4.718;2023-09-07T12:43:38;26.20;61.40
13928;DHT22;7036;50.834;4.718;2023-09-07T12:46:05;26.10;61.30
13928;DHT22;7036;50.834;4.718;2023-09-07T12:48:32;26.20;61.50
13928;DHT22;7036;50.834;4.718;2023-09-07T12:50:59;26.20;61.50
13928;DHT22;7036;50.834;4.718;2023-09-07T12:53:26;26.20;61.50
13928;DHT22;7036;50.834;4.718;2023-09-07T12:55:53;26.20;61.50
13928;DHT22;7036;50.834;4.718;2023-09-07T12:58:20;26.20;61.60
13928;DHT22;7036;50.834;4.718;2023-09-07T13:00:47;26.20;61.50
13928;DHT22;7036;50.834;4.718;2023-09-07T13:03:16;26.20;61.60
13928;DHT22;7036;50.834;4.718;2023-09-07T13:05:43;26.20;61.60
13928;DHT22;7036;50.834;4.718;2023-09-07T13:08:10;26.20;61.60
13928;DHT22;7036;50.834;4.718;2023-09-07T13:10:37;26.20;61.60
13928;DHT22;7036;50.834;4.718;2023-09-07T13:13:03;26.20;61.70
13928;DHT22;7036;50.834;4.718;2023-09-07T13:15:31;26.20;61.90
13928;DHT22;7036;50.834;4.718;2023-09-07T13:17:58;26.20;61.70
13928;DHT22;7036;50.834;4.718;2023-09-07T13:20:25;26.20;61.80
13928;DHT22;7036;50.834;4.718;2023-09-07T13:22:52;26.20;61.80
13928;DHT22;7036;50.834;4.718;2023-09-07T13:25:19;26.20;61.80
13928;DHT22;7036;50.834;4.718;2023-09-07T13:27:46;26.30;62.00
13928;DHT22;7036;50.834;4.718;2023-09-07T13:30:12;26.30;62.00
13928;DHT22;7036;50.834;4.718;2023-09-07T13:32:39;26.30;62.00
13928;DHT22;7036;50.834;4.718;2023-09-07T13:35:07;26.30;62.00
13928;DHT22;7036;50.834;4.718;2023-09-07T13:37:34;26.30;62.70
13928;DHT22;7036;50.834;4.718;2023-09-07T13:40:01;26.30;62.10
13928;DHT22;7036;50.834;4.718;2023-09-07T13:42:28;26.30;62.10
13928;DHT22;7036;50.834;4.718;2023-09-07T13:44:55;26.30;62.30
13928;DHT22;7036;50.834;4.718;2023-09-07T13:47:22;26.30;62.30
13928;DHT22;7036;50.834;4.718;2023-09-07T13:49:49;26.30;62.30
13928;DHT22;7036;50.834;4.718;2023-09-07T13:52:16;26.30;62.20
13928;DHT22;7036;50.834;4.718;2023-09-07T13:54:43;26.30;62.20
13928;DHT22;7036;50.834;4.718;2023-09-07T13:57:16;26.30;62.20
13928;DHT22;7036;50.834;4.718;2023-09-07T13:59:43;26.30;62.30
13928;DHT22;7036;50.834;4.718;2023-09-07T14:02:10;26.30;62.20
13928;DHT22;7036;50.834;4.718;2023-09-07T14:04:37;26.30;62.20
13928;DHT22;7036;50.834;4.718;2023-09-07T14:07:04;26.40;62.30
13928;DHT22;7036;50.834;4.718;2023-09-07T14:09:31;26.40;62.30
13928;DHT22;7036;50.834;4.718;2023-09-07T14:11:58;26.40;62.30
13928;DHT22;7036;50.834;4.718;2023-09-07T14:14:25;26.40;62.30
13928;DHT22;7036;50.834;4.718;2023-09-07T14:16:52;26.40;62.30
13928;DHT22;7036;50.834;4.718;2023-09-07T14:19:18;26.40;62.30
13928;DHT22;7036;50.834;4.718;2023-09-07T14:21:45;26.40;62.30
13928;DHT22;7036;50.834;4.718;2023-09-07T14:24:12;26.40;62.40
13928;DHT22;7036;50.834;4.718;2023-09-07T14:26:39;26.40;62.30
13928;DHT22;7036;50.834;4.718;2023-09-07T14:29:06;26.40;62.30
13928;DHT22;7036;50.834;4.718;2023-09-07T14:31:33;26.40;62.40
13928;DHT22;7036;50.834;4.718;2023-09-07T14:34:00;26.40;62.40
13928;DHT22;7036;50.834;4.718;2023-09-07T14:36:27;26.50;62.40
13928;DHT22;7036;50.834;4.718;2023-09-07T14:38:54;26.40;62.40
13928;DHT22;7036;50.834;4.718;2023-09-07T14:41:21;26.50;62.40
13928;DHT22;7036;50.834;4.718;2023-09-07T14:43:48;26.50;62.40
13928;DHT22;7036;50.834;4.718;2023-09-07T14:46:15;26.50;62.40
13928;DHT22;7036;50.834;4.718;2023-09-07T14:48:43;26.50;62.40
13928;DHT22;7036;50.834;4.718;2023-09-07T14:51:09;26.50;62.40
13928;DHT22;7036;50.834;4.718;2023-09-07T14:53:36;26.50;62.40
13928;DHT22;7036;50.834;4.718;2023-09-07T14:56:03;26.60;62.50
13928;DHT22;7036;50.834;4.718;2023-09-07T14:58:30;26.60;62.40
13928;DHT22;7036;50.834;4.718;2023-09-07T15:00:57;26.60;62.40
13928;DHT22;7036;50.834;4.718;2023-09-07T15:03:24;26.60;62.40
13928;DHT22;7036;50.834;4.718;2023-09-07T15:05:51;26.60;62.40
13928;DHT22;7036;50.834;4.718;2023-09-07T15:08:18;26.60;62.30
13928;DHT22;7036;50.834;4.718;2023-09-07T15:10:45;26.60;62.30
13928;DHT22;7036;50.834;4.718;2023-09-07T15:13:12;26.70;62.30
13928;DHT22;7036;50.834;4.718;2023-09-07T15:15:40;26.70;62.30
13928;DHT22;7036;50.834;4.718;2023-09-07T15:18:07;26.70;62.30
13928;DHT22;7036;50.834;4.718;2023-09-07T15:20:34;26.70;62.40
13928;DHT22;7036;50.834;4.718;2023-09-07T15:23:01;26.70;62.40
13928;DHT22;7036;50.834;4.718;2023-09-07T15:25:27;26.80;62.50
13928;DHT22;7036;50.834;4.718;2023-09-07T15:27:54;26.80;62.60
13928;DHT22;7036;50.834;4.718;2023-09-07T15:30:22;26.80;62.50
13928;DHT22;7036;50.834;4.718;2023-09-07T15:32:48;26.80;62.50
13928;DHT22;7036;50.834;4.718;2023-09-07T15:35:16;26.80;62.40
13928;DHT22;7036;50.834;4.718;2023-09-07T15:37:42;26.90;62.40
13928;DHT22;7036;50.834;4.718;2023-09-07T15:40:09;26.80;62.30
13928;DHT22;7036;50.834;4.718;2023-09-07T15:42:36;26.90;62.40